Houston, Texas
Current Conditions -  °F | °C
As of 2:15 PM on Sunday 25 Jan 2015 (Local Time) from KMCJ Reporting Station
Clear Clear  
Wind Chill: 68°   Ceiling: Unl
Heat Index: 68°   Visibility: NA
Dew Point: 39°   Wind: 3mph
Humidity: 35%   Direction: 260°W
Pressure: 30.01"   Gusts: 16mph
Location:  29.76°N, 95.37°W
Report Text: KMCJ 252015Z AUTO 26003G14KT CLR 20/04 A3001 RMK AO1
Loading
Personal Weather Stations






























Interactive Weather Map New forecast layout! Learn more

10-Day Weather Forecast

Advertisements
Track Severe Weather on mobile